Time;durP1;ratioP1;P1;durP2;ratioP2;P2;SDS_P1;SDS_P2;PMS_P1;PMS_P2;Temp;Humidity;BMP_temperature;BMP_pressure;BME280_temperature;BME280_humidity;BME280_pressure;Samples;Min_cycle;Max_cycle;Signal;HPM_P1;HPM_P2
2022/06/09 00:00:10;;;;;;;0.90;0.90;;;20.90;49.60;;;;;;4983678;28;20860;-58
2022/06/09 00:02:38;;;;;;;1.30;1.20;;;20.90;49.60;;;;;;4981315;28;20220;-58
2022/06/09 00:05:05;;;;;;;1.30;1.20;;;20.90;49.60;;;;;;4983862;28;20462;-58
2022/06/09 00:07:31;;;;;;;1.10;1.00;;;20.80;49.60;;;;;;4981403;28;20888;-59
2022/06/09 00:10:10;;;;;;;1.13;1.03;;;20.80;49.60;;;;;;4982203;28;20924;-58
2022/06/09 00:12:36;;;;;;;1.00;1.00;;;20.80;49.60;;;;;;4981737;28;20450;-58
2022/06/09 00:15:04;;;;;;;1.40;1.30;;;20.80;49.60;;;;;;4980627;28;20446;-58
2022/06/09 00:17:30;;;;;;;1.20;1.10;;;20.80;49.50;;;;;;4980597;28;20442;-58
2022/06/09 00:19:56;;;;;;;1.03;1.03;;;20.80;49.60;;;;;;4980763;28;20492;-58
2022/06/09 00:22:22;;;;;;;1.10;1.00;;;20.80;49.60;;;;;;4979598;28;20483;-58
2022/06/09 00:24:47;;;;;;;1.00;0.90;;;20.80;49.60;;;;;;4982547;28;20705;-59
2022/06/09 00:27:13;;;;;;;1.00;0.90;;;20.80;49.60;;;;;;4980621;28;20228;-58
2022/06/09 00:29:39;;;;;;;1.20;1.10;;;20.80;49.60;;;;;;4980875;28;20674;-58
2022/06/09 00:32:05;;;;;;;1.30;1.20;;;20.80;49.60;;;;;;4980962;28;20221;-58
2022/06/09 00:34:31;;;;;;;1.10;1.00;;;20.80;49.60;;;;;;4979876;28;20945;-58
2022/06/09 00:36:57;;;;;;;1.20;1.10;;;20.80;49.60;;;;;;4984508;28;20788;-58
2022/06/09 00:39:22;;;;;;;1.43;1.20;;;20.80;49.60;;;;;;4981125;28;20232;-58
2022/06/09 00:41:48;;;;;;;1.40;1.10;;;20.80;49.60;;;;;;4979513;28;20660;-59
2022/06/09 00:44:15;;;;;;;1.40;1.30;;;20.80;49.70;;;;;;4985897;28;20220;-58
2022/06/09 00:46:42;;;;;;;1.10;1.00;;;20.90;49.70;;;;;;4980042;28;20224;-58
2022/06/09 00:49:18;;;;;;;1.40;1.30;;;20.80;49.60;;;;;;4975613;28;21043;-58
2022/06/09 00:51:48;;;;;;;2.10;2.00;;;20.80;49.60;;;;;;4977830;28;20489;-58
2022/06/09 00:54:30;;;;;;;1.20;1.10;;;20.80;49.60;;;;;;4978952;28;20454;-58
2022/06/09 00:57:04;;;;;;;1.13;1.03;;;20.80;49.70;;;;;;4982044;28;20557;-59
2022/06/09 00:59:31;;;;;;;1.10;1.00;;;20.80;49.60;;;;;;4994396;28;20741;-58
2022/06/09 01:02:00;;;;;;;1.13;1.03;;;20.80;49.60;;;;;;4980490;28;20450;-58
2022/06/09 01:04:29;;;;;;;1.30;1.10;;;20.80;49.60;;;;;;4982670;28;20458;-58
2022/06/09 01:07:04;;;;;;;1.10;1.00;;;20.80;49.60;;;;;;4980850;28;20971;-58
2022/06/09 01:09:31;;;;;;;1.73;1.13;;;20.80;49.60;;;;;;4982800;28;20449;-59
2022/06/09 01:11:57;;;;;;;0.80;0.80;;;20.80;49.60;;;;;;4997775;28;20459;-59
2022/06/09 01:14:29;;;;;;;0.97;0.97;;;20.80;49.60;;;;;;4980660;28;20497;-58
2022/06/09 01:17:01;;;;;;;1.10;1.00;;;20.80;49.60;;;;;;4981998;28;20504;-58
2022/06/09 01:19:54;;;;;;;1.00;1.00;;;20.80;49.60;;;;;;4995450;28;20466;-58
2022/06/09 01:22:42;;;;;;;1.20;1.10;;;20.80;49.60;;;;;;4979753;28;20588;-58
2022/06/09 01:25:29;;;;;;;1.40;0.90;;;20.80;49.60;;;;;;4982259;28;20498;-58
2022/06/09 01:28:16;;;;;;;1.10;1.00;;;20.80;49.60;;;;;;4979246;28;20459;-59
2022/06/09 01:30:54;;;;;;;1.10;1.00;;;20.80;49.70;;;;;;4995941;28;20994;-58
2022/06/09 01:33:26;;;;;;;1.10;1.00;;;20.80;49.60;;;;;;4983542;28;20458;-58
2022/06/09 01:36:00;;;;;;;1.20;1.10;;;20.80;49.60;;;;;;5000453;28;20451;-59
2022/06/09 01:38:26;;;;;;;1.17;1.07;;;20.80;49.70;;;;;;4983562;28;20454;-59
2022/06/09 01:40:51;;;;;;;1.10;1.00;;;20.80;49.60;;;;;;4986519;28;20484;-59
2022/06/09 01:43:18;;;;;;;0.90;0.90;;;20.80;49.60;;;;;;4987019;28;20661;-58
2022/06/09 01:46:07;;;;;;;1.00;0.90;;;20.80;49.60;;;;;;4988170;28;20224;-58
2022/06/09 01:48:34;;;;;;;1.20;1.10;;;20.80;49.60;;;;;;4988154;28;20446;-58
2022/06/09 01:51:03;;;;;;;1.07;0.97;;;20.80;49.60;;;;;;4982833;28;20995;-58
2022/06/09 01:53:39;;;;;;;1.23;1.13;;;20.80;49.60;;;;;;4987844;28;21183;-58
2022/06/09 01:56:10;;;;;;;1.20;0.97;;;20.80;49.60;;;;;;4985562;28;20458;-59
2022/06/09 01:58:45;;;;;;;1.10;1.00;;;20.80;49.60;;;;;;4982712;28;20466;-58
2022/06/09 02:01:13;;;;;;;0.90;0.90;;;20.80;49.60;;;;;;4985960;28;20450;-58
2022/06/09 02:03:43;;;;;;;1.30;1.20;;;20.80;49.70;;;;;;4986072;28;20982;-58
2022/06/09 02:06:10;;;;;;;1.17;1.00;;;20.80;49.60;;;;;;4986713;28;20464;-59
2022/06/09 02:08:37;;;;;;;1.00;1.00;;;20.80;49.60;;;;;;5002361;28;20815;-59
2022/06/09 02:11:08;;;;;;;1.37;1.27;;;20.80;49.60;;;;;;4987147;28;20553;-59
2022/06/09 02:13:40;;;;;;;1.00;0.90;;;20.80;49.60;;;;;;4985972;28;20533;-59
2022/06/09 02:16:08;;;;;;;1.73;0.90;;;20.80;49.70;;;;;;4984862;28;20538;-59
2022/06/09 02:18:40;;;;;;;0.83;0.83;;;20.80;49.60;;;;;;4987258;28;20499;-59
2022/06/09 02:21:28;;;;;;;1.00;0.90;;;20.80;49.60;;;;;;4984599;28;20450;-59
2022/06/09 02:23:54;;;;;;;1.13;1.00;;;20.80;49.60;;;;;;4990154;28;20461;-59
2022/06/09 02:26:21;;;;;;;1.00;0.90;;;20.80;49.60;;;;;;4984297;28;20467;-59
2022/06/09 02:28:50;;;;;;;2.83;1.07;;;20.80;49.60;;;;;;5001540;28;20493;-59
2022/06/09 02:31:17;;;;;;;1.00;0.90;;;20.80;49.60;;;;;;4986795;28;20469;-59
2022/06/09 02:33:43;;;;;;;1.10;1.00;;;20.80;49.60;;;;;;4986777;28;20490;-59
2022/06/09 02:36:09;;;;;;;1.03;0.90;;;20.80;49.60;;;;;;4986637;28;20879;-59
2022/06/09 02:38:34;;;;;;;1.20;1.00;;;20.80;49.60;;;;;;4988926;28;20982;-59
2022/06/09 02:41:00;;;;;;;0.80;0.80;;;20.80;49.60;;;;;;4985287;28;20228;-59
2022/06/09 02:43:26;;;;;;;1.30;1.20;;;20.80;49.60;;;;;;4983259;28;20225;-59
2022/06/09 02:45:51;;;;;;;1.47;0.90;;;20.80;49.60;;;;;;4987158;28;20332;-59
2022/06/09 02:48:18;;;;;;;0.90;0.80;;;20.80;49.60;;;;;;4981710;28;20335;-59
2022/06/09 02:50:46;;;;;;;1.10;1.00;;;20.80;49.60;;;;;;4979642;28;20296;-59
2022/06/09 02:53:12;;;;;;;1.10;1.00;;;20.80;49.60;;;;;;4980880;28;20991;-59
2022/06/09 02:55:38;;;;;;;1.00;0.90;;;20.80;49.60;;;;;;4981819;28;20528;-59
2022/06/09 02:58:03;;;;;;;1.07;0.97;;;20.80;49.60;;;;;;4981535;28;20278;-59
2022/06/09 03:00:29;;;;;;;0.93;0.90;;;20.80;49.60;;;;;;4985890;28;20226;-59
2022/06/09 03:02:58;;;;;;;1.00;0.90;;;20.80;49.60;;;;;;4981380;28;20220;-59
2022/06/09 03:05:25;;;;;;;1.23;1.00;;;20.80;49.60;;;;;;4981548;28;20274;-60
2022/06/09 03:07:50;;;;;;;1.00;0.90;;;20.80;49.60;;;;;;4979563;28;20465;-59
2022/06/09 03:10:17;;;;;;;1.13;1.00;;;20.80;49.60;;;;;;4993340;28;20558;-59
2022/06/09 03:12:43;;;;;;;1.20;1.10;;;20.80;49.60;;;;;;4981962;28;20224;-59
2022/06/09 03:15:10;;;;;;;1.10;1.00;;;20.80;49.60;;;;;;4994374;28;20439;-59
2022/06/09 03:17:36;;;;;;;0.80;0.80;;;20.80;49.60;;;;;;4980608;28;20217;-59
2022/06/09 03:20:08;;;;;;;1.17;1.07;;;20.80;49.60;;;;;;4981652;28;20454;-59
2022/06/09 03:22:34;;;;;;;1.73;0.97;;;20.80;49.60;;;;;;4982200;28;20458;-59
2022/06/09 03:25:00;;;;;;;1.10;1.00;;;20.80;49.50;;;;;;4982046;28;20901;-59
2022/06/09 03:27:26;;;;;;;0.93;0.93;;;20.80;49.50;;;;;;4982931;28;20217;-60
2022/06/09 03:29:52;;;;;;;0.90;0.80;;;20.80;49.60;;;;;;4984505;28;20478;-59
2022/06/09 03:32:17;;;;;;;1.13;1.03;;;20.80;49.60;;;;;;4984725;28;20356;-59
2022/06/09 03:34:43;;;;;;;1.10;1.00;;;20.80;49.50;;;;;;4979014;28;20252;-59
2022/06/09 03:37:09;;;;;;;1.20;1.10;;;20.80;49.50;;;;;;4984051;28;20244;-59
2022/06/09 03:39:34;;;;;;;1.20;1.10;;;20.80;49.50;;;;;;4981995;28;20224;-59
2022/06/09 03:42:00;;;;;;;1.27;1.17;;;20.80;49.60;;;;;;4982084;28;20319;-59
2022/06/09 03:44:26;;;;;;;1.40;1.10;;;20.80;50.30;;;;;;4981530;28;20225;-59
2022/06/09 03:46:51;;;;;;;2.70;1.10;;;20.80;49.50;;;;;;4983092;28;20221;-59
2022/06/09 03:49:17;;;;;;;1.23;1.10;;;20.80;49.50;;;;;;4978731;28;20237;-59
2022/06/09 03:51:42;;;;;;;1.23;1.10;;;20.80;49.50;;;;;;4987368;28;20307;-59
2022/06/09 03:54:08;;;;;;;1.90;1.00;;;20.80;49.50;;;;;;4981967;28;20228;-59
2022/06/09 03:56:34;;;;;;;1.20;1.10;;;20.80;50.30;;;;;;5000274;28;20708;-59
2022/06/09 03:59:00;;;;;;;0.83;0.80;;;20.80;49.50;;;;;;4982402;28;20221;-59
2022/06/09 04:01:26;;;;;;;1.30;1.20;;;20.80;49.50;;;;;;4983565;28;20458;-59
2022/06/09 04:03:51;;;;;;;1.10;1.00;;;20.80;49.50;;;;;;4984052;28;20694;-61
2022/06/09 04:06:20;;;;;;;1.20;1.10;;;20.80;49.50;;;;;;4985620;28;20784;-60
2022/06/09 04:08:48;;;;;;;1.00;1.00;;;20.80;49.40;;;;;;4980933;28;20220;-60
2022/06/09 04:11:15;;;;;;;1.10;1.00;;;20.80;49.30;;;;;;4985394;28;20545;-60
2022/06/09 04:13:40;;;;;;;1.00;0.90;;;20.80;49.30;;;;;;4979645;28;20421;-59
2022/06/09 04:16:17;;;;;;;1.20;1.10;;;20.90;49.30;;;;;;4981573;28;20458;-59
2022/06/09 04:18:42;;;;;;;1.20;1.10;;;20.90;49.20;;;;;;4984002;28;20227;-61
2022/06/09 04:21:08;;;;;;;1.13;1.03;;;20.90;49.20;;;;;;4984732;28;20454;-59
2022/06/09 04:23:34;;;;;;;1.40;1.07;;;20.90;49.20;;;;;;4980754;28;20245;-59
2022/06/09 04:25:59;;;;;;;1.87;1.00;;;20.90;49.10;;;;;;4985327;28;20248;-59
2022/06/09 04:28:25;;;;;;;0.90;0.90;;;20.90;49.10;;;;;;4980600;28;20223;-59
2022/06/09 04:30:51;;;;;;;1.13;1.03;;;21.00;49.20;;;;;;4978685;28;20280;-59
2022/06/09 04:33:16;;;;;;;1.10;1.00;;;21.00;49.20;;;;;;4981042;28;20222;-59
2022/06/09 04:35:42;;;;;;;1.10;1.00;;;21.00;49.20;;;;;;4982574;28;20590;-59
2022/06/09 04:38:10;;;;;;;0.97;0.97;;;21.00;49.20;;;;;;4978257;28;20282;-61
2022/06/09 04:40:40;;;;;;;2.60;1.20;;;21.00;49.20;;;;;;4982551;28;20224;-60
2022/06/09 04:43:09;;;;;;;1.20;1.03;;;21.00;49.20;;;;;;4980001;28;20451;-59
2022/06/09 04:45:35;;;;;;;1.10;1.00;;;21.00;49.20;;;;;;4981803;28;20460;-59
2022/06/09 04:48:01;;;;;;;1.10;1.00;;;21.00;50.00;;;;;;4978142;28;20467;-59
2022/06/09 04:50:27;;;;;;;1.20;1.10;;;21.00;49.20;;;;;;4980645;28;20470;-59
2022/06/09 04:52:53;;;;;;;1.00;0.90;;;21.00;49.20;;;;;;4981634;28;21041;-59
2022/06/09 04:55:19;;;;;;;1.00;0.90;;;21.00;49.20;;;;;;4982230;28;20229;-59
2022/06/09 04:57:44;;;;;;;1.40;1.03;;;21.00;49.30;;;;;;4994952;28;20220;-59
2022/06/09 05:00:13;;;;;;;1.20;1.10;;;21.00;49.20;;;;;;4980149;28;20500;-59
2022/06/09 05:02:39;;;;;;;1.63;1.50;;;21.00;49.20;;;;;;4982506;28;20209;-59
2022/06/09 05:05:06;;;;;;;1.63;1.30;;;21.00;49.30;;;;;;4978267;28;20461;-59
2022/06/09 05:07:32;;;;;;;1.17;1.07;;;21.00;49.30;;;;;;4992405;28;20471;-59
2022/06/09 05:09:57;;;;;;;1.20;1.10;;;21.00;49.30;;;;;;4977959;28;20505;-59
2022/06/09 05:12:23;;;;;;;1.30;1.20;;;21.00;49.30;;;;;;4983047;28;20221;-59
2022/06/09 05:14:51;;;;;;;1.10;1.00;;;21.00;49.30;;;;;;4980877;28;20217;-60
2022/06/09 05:17:17;;;;;;;1.17;1.07;;;21.00;49.30;;;;;;4986561;28;20255;-59
2022/06/09 05:19:43;;;;;;;1.37;1.27;;;21.00;49.30;;;;;;4983689;28;20482;-59
2022/06/09 05:22:08;;;;;;;1.30;1.20;;;21.00;49.30;;;;;;4985102;28;20224;-59
2022/06/09 05:24:34;;;;;;;1.57;1.20;;;21.00;49.30;;;;;;4983848;28;20316;-60
2022/06/09 05:26:59;;;;;;;1.10;1.00;;;21.00;49.30;;;;;;4982413;28;20232;-59
2022/06/09 05:29:25;;;;;;;1.23;1.10;;;21.00;49.30;;;;;;4980879;28;20324;-60
2022/06/09 05:31:51;;;;;;;1.30;1.23;;;21.00;49.30;;;;;;4982358;28;20239;-60
2022/06/09 05:34:16;;;;;;;1.33;1.20;;;21.00;49.30;;;;;;4995873;28;20259;-60
2022/06/09 05:36:42;;;;;;;1.40;1.30;;;21.00;49.30;;;;;;4977728;28;20221;-60
2022/06/09 05:44:52;;;;;;;1.80;1.40;;;21.00;49.30;;;;;;4975761;28;20482;-59
2022/06/09 05:47:20;;;;;;;1.40;1.30;;;21.00;49.40;;;;;;4979488;28;20507;-59
2022/06/09 05:49:47;;;;;;;1.50;1.40;;;21.00;49.30;;;;;;4980680;28;20474;-59
2022/06/09 05:52:14;;;;;;;1.20;1.10;;;21.00;49.30;;;;;;4981069;28;20549;-59
2022/06/09 05:54:40;;;;;;;1.70;1.40;;;21.00;49.40;;;;;;4979029;28;20493;-59
2022/06/09 05:57:05;;;;;;;1.40;1.30;;;21.00;49.40;;;;;;4981895;28;20446;-59
2022/06/09 05:59:31;;;;;;;1.47;1.37;;;21.00;49.40;;;;;;4980710;28;20229;-59
2022/06/09 06:01:57;;;;;;;1.60;1.50;;;21.00;49.30;;;;;;4979456;28;20224;-59
2022/06/09 06:04:22;;;;;;;1.30;1.20;;;21.00;49.30;;;;;;4977991;28;20677;-59
2022/06/09 06:06:48;;;;;;;2.00;1.90;;;21.00;49.40;;;;;;4979287;28;20621;-60
2022/06/09 06:09:19;;;;;;;1.90;1.77;;;21.00;49.40;;;;;;4979205;28;20685;-59
2022/06/09 06:11:47;;;;;;;1.40;1.20;;;21.00;49.30;;;;;;4984241;28;20221;-59
2022/06/09 06:14:13;;;;;;;1.63;1.20;;;21.00;49.40;;;;;;4980422;28;20457;-59
2022/06/09 06:16:39;;;;;;;8.57;1.87;;;21.00;49.40;;;;;;4985841;28;20529;-59
2022/06/09 06:19:07;;;;;;;1.80;1.70;;;21.00;49.40;;;;;;4980528;28;20225;-59
2022/06/09 06:21:34;;;;;;;1.57;1.47;;;21.00;49.40;;;;;;4983494;28;20446;-58
2022/06/09 06:23:59;;;;;;;2.50;1.60;;;21.00;49.40;;;;;;4980523;28;20463;-59
2022/06/09 06:26:25;;;;;;;1.47;1.37;;;21.00;49.40;;;;;;4985629;28;20462;-59
2022/06/09 06:28:51;;;;;;;1.40;1.30;;;21.00;49.40;;;;;;4984325;28;20240;-60
2022/06/09 06:31:18;;;;;;;1.57;1.40;;;21.00;49.40;;;;;;4985846;28;20319;-58
2022/06/09 06:33:44;;;;;;;4.00;1.43;;;21.00;49.40;;;;;;4979647;28;20475;-58
2022/06/09 06:36:10;;;;;;;1.70;1.60;;;21.00;49.30;;;;;;4984652;28;20494;-59
2022/06/09 06:38:40;;;;;;;1.53;1.43;;;21.00;49.40;;;;;;4989145;28;20232;-58
2022/06/09 06:41:07;;;;;;;1.40;1.30;;;21.00;49.40;;;;;;4984441;28;20697;-58
2022/06/09 06:43:33;;;;;;;2.03;1.30;;;21.00;49.30;;;;;;4981401;28;20459;-59
2022/06/09 06:45:58;;;;;;;2.03;1.93;;;21.00;49.30;;;;;;4990029;28;20457;-59
2022/06/09 06:48:24;;;;;;;1.60;1.50;;;21.00;49.30;;;;;;4984717;28;20217;-59
2022/06/09 06:50:50;;;;;;;1.73;1.57;;;21.00;49.30;;;;;;4985762;28;20701;-58
2022/06/09 06:53:15;;;;;;;1.53;1.43;;;21.00;49.40;;;;;;4985129;28;20220;-58
2022/06/09 06:55:41;;;;;;;1.60;1.50;;;21.00;49.40;;;;;;4983771;28;20224;-58
2022/06/09 06:58:07;;;;;;;1.63;1.53;;;21.00;49.30;;;;;;4984704;28;20216;-58
2022/06/09 07:00:33;;;;;;;1.40;1.30;;;21.00;49.30;;;;;;4982463;28;20535;-58
2022/06/09 07:02:59;;;;;;;1.90;1.80;;;21.00;49.30;;;;;;4981542;28;20655;-58
2022/06/09 07:05:25;;;;;;;1.90;1.73;;;21.00;49.30;;;;;;4985500;28;20451;-59
2022/06/09 07:07:50;;;;;;;2.03;1.93;;;21.00;49.30;;;;;;4982549;28;20770;-58
2022/06/09 07:10:18;;;;;;;1.70;1.60;;;21.00;49.30;;;;;;4982780;28;20237;-59
2022/06/09 07:12:44;;;;;;;1.60;1.50;;;21.00;49.30;;;;;;4981504;28;20224;-58
2022/06/09 07:15:12;;;;;;;2.20;2.00;;;21.00;50.10;;;;;;4982933;28;20450;-58
2022/06/09 07:17:38;;;;;;;1.87;1.77;;;21.00;49.30;;;;;;4981059;28;20579;-58
2022/06/09 07:20:05;;;;;;;2.20;2.07;;;21.00;49.30;;;;;;4983104;28;20462;-58
2022/06/09 07:22:30;;;;;;;1.87;1.77;;;21.00;49.50;;;;;;4982834;28;20245;-58
2022/06/09 07:24:56;;;;;;;1.93;1.83;;;21.00;49.30;;;;;;4981726;28;20497;-59
2022/06/09 07:27:22;;;;;;;2.33;2.13;;;21.00;49.30;;;;;;4982675;28;20257;-58
2022/06/09 07:29:48;;;;;;;2.10;2.00;;;21.00;49.40;;;;;;4979353;28;20902;-59
2022/06/09 07:32:14;;;;;;;1.90;1.80;;;21.00;49.30;;;;;;4988607;28;20954;-59
2022/06/09 07:34:40;;;;;;;1.83;1.73;;;21.00;49.40;;;;;;4982124;28;20299;-58
2022/06/09 07:37:06;;;;;;;1.70;1.60;;;21.00;49.40;;;;;;4981616;28;20225;-58
2022/06/09 07:39:32;;;;;;;1.87;1.77;;;21.00;49.30;;;;;;4984075;28;20450;-58
2022/06/09 07:41:59;;;;;;;2.03;1.93;;;21.00;49.30;;;;;;4980899;28;20538;-59
2022/06/09 07:44:25;;;;;;;2.27;2.07;;;21.00;49.40;;;;;;4978333;28;20443;-58
2022/06/09 07:46:51;;;;;;;1.90;1.80;;;21.00;49.30;;;;;;4986048;28;20451;-59
2022/06/09 07:49:17;;;;;;;2.10;2.00;;;20.90;49.30;;;;;;4981397;28;20229;-58
2022/06/09 07:51:43;;;;;;;2.60;2.40;;;21.00;49.40;;;;;;4984074;28;20271;-58
2022/06/09 07:54:09;;;;;;;2.13;2.03;;;21.00;49.30;;;;;;4979880;28;20463;-58
2022/06/09 07:56:34;;;;;;;2.60;2.40;;;21.00;49.40;;;;;;4979167;28;20585;-58
2022/06/09 07:59:02;;;;;;;2.00;1.90;;;21.00;49.30;;;;;;4987511;28;20276;-58
2022/06/09 08:01:28;;;;;;;2.67;2.03;;;21.00;49.30;;;;;;4986047;28;20252;-58
2022/06/09 08:03:54;;;;;;;2.00;1.90;;;20.90;49.30;;;;;;4982226;28;20648;-58
2022/06/09 08:06:20;;;;;;;2.20;2.10;;;20.90;49.30;;;;;;4988693;28;20439;-58
2022/06/09 08:08:46;;;;;;;2.60;2.50;;;21.00;49.30;;;;;;4980797;28;20461;-59
2022/06/09 08:11:11;;;;;;;2.40;2.30;;;21.00;49.30;;;;;;4982211;28;20802;-58
2022/06/09 08:13:37;;;;;;;2.17;2.07;;;21.00;50.10;;;;;;4985873;28;20240;-58
2022/06/09 08:16:05;;;;;;;2.53;2.30;;;20.90;49.30;;;;;;4981420;28;20590;-58
2022/06/09 08:18:30;;;;;;;2.23;2.13;;;20.90;49.20;;;;;;4982643;28;20209;-58
2022/06/09 08:20:56;;;;;;;2.00;1.90;;;21.00;49.30;;;;;;4985201;28;20446;-58
2022/06/09 08:23:24;;;;;;;2.23;2.13;;;21.00;49.30;;;;;;4980389;28;20217;-58
2022/06/09 08:25:53;;;;;;;3.20;2.70;;;20.90;49.30;;;;;;4984282;28;20452;-59
2022/06/09 08:28:20;;;;;;;2.60;2.40;;;20.90;49.30;;;;;;4980782;28;20447;-58
2022/06/09 08:30:48;;;;;;;4.13;2.50;;;20.90;49.30;;;;;;4980918;28;20464;-59
2022/06/09 08:33:13;;;;;;;3.63;2.57;;;20.90;49.30;;;;;;4982284;28;20894;-58
2022/06/09 08:35:39;;;;;;;2.77;2.43;;;20.90;49.30;;;;;;4982390;28;21050;-58
2022/06/09 08:38:06;;;;;;;2.63;2.43;;;20.90;49.30;;;;;;4981900;28;20737;-59
2022/06/09 08:41:13;;;;;;;3.63;2.57;;;21.00;49.30;;;;;;4980580;28;20474;-58
2022/06/09 08:43:46;;;;;;;2.20;2.10;;;20.90;50.10;;;;;;4979346;28;20962;-58
2022/06/09 08:46:26;;;;;;;2.60;2.40;;;20.90;50.10;;;;;;4997965;28;21034;-58
2022/06/09 08:48:55;;;;;;;4.07;2.70;;;20.90;49.40;;;;;;4979674;28;20997;-59
2022/06/09 08:51:47;;;;;;;2.60;2.40;;;20.90;49.30;;;;;;4977247;28;20520;-58
2022/06/09 08:54:22;;;;;;;2.57;2.47;;;20.90;49.30;;;;;;4983799;28;20462;-58
2022/06/09 08:56:49;;;;;;;2.47;2.30;;;20.90;49.30;;;;;;4979570;28;20956;-59
2022/06/09 08:59:18;;;;;;;2.30;2.20;;;20.90;49.40;;;;;;4980346;28;20475;-58
2022/06/09 09:02:00;;;;;;;2.40;2.20;;;20.90;49.40;;;;;;4978784;28;20454;-58
2022/06/09 09:04:42;;;;;;;2.53;2.30;;;20.90;49.40;;;;;;4978643;28;20783;-58
2022/06/09 09:07:26;;;;;;;2.30;2.10;;;20.90;49.40;;;;;;4977956;28;20454;-58
2022/06/09 09:10:18;;;;;;;2.50;2.33;;;20.90;49.40;;;;;;4980578;28;20474;-58
2022/06/09 09:13:03;;;;;;;2.30;2.20;;;20.90;49.40;;;;;;4981669;28;20454;-59
2022/06/09 09:15:58;;;;;;;2.37;2.27;;;20.90;49.40;;;;;;4982513;28;20436;-59
2022/06/09 09:18:37;;;;;;;2.50;2.30;;;20.90;49.40;;;;;;4982176;28;20447;-59
2022/06/09 09:21:12;;;;;;;2.53;2.43;;;20.90;49.40;;;;;;4980725;28;20880;-59
2022/06/09 09:23:43;;;;;;;2.60;2.50;;;20.90;49.40;;;;;;4982818;28;20470;-59
2022/06/09 09:26:22;;;;;;;2.10;2.00;;;20.90;49.40;;;;;;4983642;28;20550;-59
2022/06/09 09:28:55;;;;;;;2.63;2.43;;;20.90;49.40;;;;;;4981356;28;20524;-59
2022/06/09 09:31:43;;;;;;;2.50;2.40;;;20.90;49.40;;;;;;4979001;28;20518;-58
2022/06/09 09:34:40;;;;;;;3.13;2.93;;;20.90;49.40;;;;;;4981552;28;21000;-58
2022/06/09 09:37:25;;;;;;;3.17;2.97;;;20.90;49.40;;;;;;4973405;28;20451;-59
2022/06/09 09:40:00;;;;;;;3.00;2.70;;;20.90;49.40;;;;;;4982363;28;20441;-59
2022/06/09 09:42:30;;;;;;;2.43;2.33;;;20.90;49.50;;;;;;4980787;28;20461;-58
2022/06/09 09:45:10;;;;;;;2.90;2.70;;;20.90;49.50;;;;;;4984343;28;20815;-59
2022/06/09 09:47:57;;;;;;;2.80;2.60;;;20.90;49.50;;;;;;4983274;28;20455;-59
2022/06/09 09:50:25;;;;;;;2.67;2.47;;;20.90;49.50;;;;;;4978934;28;20466;-59
2022/06/09 09:53:02;;;;;;;2.37;2.27;;;20.90;49.40;;;;;;4979239;28;20466;-59
2022/06/09 09:55:32;;;;;;;2.60;2.50;;;20.90;49.40;;;;;;4985600;28;20453;-59
2022/06/09 09:58:27;;;;;;;2.67;2.57;;;20.90;49.40;;;;;;5000574;28;20974;-59
2022/06/09 10:00:57;;;;;;;2.63;2.53;;;20.90;49.50;;;;;;4985237;28;20489;-59
2022/06/09 10:09:24;;;;;;;3.03;2.90;;;20.90;49.50;;;;;;4982686;28;20500;-59
2022/06/09 10:11:54;;;;;;;2.67;2.57;;;20.90;49.50;;;;;;4979475;28;20550;-59
2022/06/09 10:14:47;;;;;;;2.53;2.33;;;20.90;49.50;;;;;;4982301;28;20457;-59
2022/06/09 10:17:32;;;;;;;3.00;2.90;;;20.90;49.50;;;;;;4980760;28;20849;-58
2022/06/09 10:20:14;;;;;;;2.70;2.60;;;20.90;49.50;;;;;;4985079;28;20963;-59
2022/06/09 10:22:42;;;;;;;2.57;2.47;;;20.90;49.50;;;;;;5000520;28;20454;-58
2022/06/09 10:25:18;;;;;;;3.00;2.90;;;20.90;49.50;;;;;;4982249;28;20882;-58
2022/06/09 10:27:47;;;;;;;2.90;2.73;;;20.90;49.50;;;;;;4983510;28;20450;-58
2022/06/09 10:30:22;;;;;;;2.43;2.33;;;20.90;49.50;;;;;;4985733;28;20489;-58
2022/06/09 10:32:53;;;;;;;3.03;2.83;;;20.90;49.50;;;;;;4983969;28;20507;-60
2022/06/09 10:35:19;;;;;;;2.57;2.47;;;20.90;49.40;;;;;;4986497;28;20450;-58
2022/06/09 10:38:25;;;;;;;2.77;2.67;;;20.90;49.50;;;;;;4981726;28;20454;-58
2022/06/09 10:40:58;;;;;;;3.20;3.00;;;20.90;49.40;;;;;;4941050;28;20214;-58
2022/06/09 10:43:59;;;;;;;3.23;3.03;;;20.90;49.50;;;;;;4978953;28;20447;-59
2022/06/09 10:46:24;;;;;;;2.67;2.47;;;20.90;49.50;;;;;;4983142;28;20461;-58
2022/06/09 10:55:24;;;;;;;2.83;2.63;;;20.90;49.50;;;;;;4987089;28;20489;-58
2022/06/09 10:58:12;;;;;;;2.93;2.73;;;20.90;49.50;;;;;;4985493;28;20459;-59
2022/06/09 11:00:41;;;;;;;2.63;2.53;;;20.90;49.50;;;;;;4986404;28;20437;-58
2022/06/09 11:03:15;;;;;;;2.50;2.40;;;20.90;49.50;;;;;;4982346;28;20474;-58
2022/06/09 11:05:41;;;;;;;2.90;2.80;;;20.90;50.30;;;;;;4983489;28;20701;-58
2022/06/09 11:08:50;;;;;;;2.50;2.30;;;20.90;49.50;;;;;;4983815;28;21018;-58
2022/06/09 11:12:02;;;;;;;2.73;2.63;;;20.90;49.50;;;;;;4991408;28;20737;-58
2022/06/09 11:15:11;;;;;;;3.27;3.13;;;20.90;49.50;;;;;;4983005;28;20461;-58
2022/06/09 11:18:06;;;;;;;2.70;2.60;;;20.90;49.50;;;;;;4982233;28;20463;-59
2022/06/09 11:20:56;;;;;;;2.40;2.30;;;20.90;49.60;;;;;;4984035;28;20489;-58
2022/06/09 11:23:46;;;;;;;3.10;2.90;;;20.80;49.60;;;;;;4980460;28;20468;-58
2022/06/09 11:26:28;;;;;;;3.07;2.87;;;20.90;49.60;;;;;;4983670;28;20469;-58
2022/06/09 11:29:19;;;;;;;3.50;3.30;;;20.90;49.60;;;;;;4981723;28;20517;-59
2022/06/09 11:32:09;;;;;;;2.60;2.50;;;20.90;49.50;;;;;;4976769;28;20471;-58
2022/06/09 11:35:01;;;;;;;2.90;2.70;;;20.90;49.60;;;;;;4981422;28;20421;-58
2022/06/09 11:37:50;;;;;;;2.80;2.70;;;20.80;49.50;;;;;;4979346;28;20455;-58
2022/06/09 11:40:32;;;;;;;2.77;2.67;;;20.90;49.60;;;;;;4981606;28;20428;-58
2022/06/09 11:43:32;;;;;;;3.00;2.80;;;20.90;49.60;;;;;;4981027;28;20481;-58
2022/06/09 11:46:06;;;;;;;3.33;3.13;;;20.90;49.60;;;;;;4983750;28;20454;-59
2022/06/09 11:48:38;;;;;;;2.57;2.47;;;20.90;49.60;;;;;;4980376;28;20455;-59
2022/06/09 11:51:05;;;;;;;3.00;2.80;;;20.90;49.70;;;;;;4977526;28;20463;-59
2022/06/09 11:53:35;;;;;;;2.20;2.10;;;20.80;49.60;;;;;;4979204;28;20462;-59
2022/06/09 11:56:40;;;;;;;3.70;2.73;;;20.90;49.60;;;;;;4979624;28;20459;-58
2022/06/09 11:59:11;;;;;;;2.50;2.40;;;20.90;49.60;;;;;;5001626;28;20480;-58
2022/06/09 12:01:40;;;;;;;2.80;2.60;;;20.90;49.60;;;;;;4980575;28;20434;-59
2022/06/09 12:04:50;;;;;;;2.93;2.73;;;20.90;50.40;;;;;;4979460;28;20462;-59
2022/06/09 12:07:25;;;;;;;2.97;2.77;;;20.90;49.60;;;;;;4964191;28;20450;-58
2022/06/09 12:10:28;;;;;;;3.00;2.80;;;20.80;49.60;;;;;;4980671;28;20572;-58
2022/06/09 12:13:12;;;;;;;2.60;2.50;;;20.90;49.60;;;;;;4989030;28;20584;-59
2022/06/09 12:15:51;;;;;;;2.50;2.40;;;20.90;49.60;;;;;;4984550;28;20512;-58
2022/06/09 12:18:19;;;;;;;2.97;2.73;;;20.90;49.60;;;;;;4984637;28;20447;-57
2022/06/09 12:20:47;;;;;;;2.90;2.70;;;20.90;49.60;;;;;;4983188;28;20584;-58
2022/06/09 12:23:44;;;;;;;2.90;2.80;;;20.90;49.60;;;;;;4979621;28;20426;-58
2022/06/09 12:26:09;;;;;;;3.67;3.00;;;20.90;49.60;;;;;;4980242;28;20459;-58
2022/06/09 12:28:50;;;;;;;2.70;2.60;;;20.80;49.60;;;;;;4980837;28;20462;-58
2022/06/09 12:31:18;;;;;;;2.60;2.50;;;20.90;49.60;;;;;;4985076;28;20240;-59
2022/06/09 12:34:16;;;;;;;2.77;2.67;;;20.90;49.60;;;;;;4980807;28;20450;-58
2022/06/09 12:36:51;;;;;;;3.33;3.00;;;20.90;49.60;;;;;;4983061;28;20466;-59
2022/06/09 12:39:31;;;;;;;3.00;2.90;;;20.90;49.60;;;;;;4982169;28;20455;-58
2022/06/09 12:42:01;;;;;;;2.90;2.70;;;20.90;49.60;;;;;;4981936;28;20482;-59
2022/06/09 12:44:45;;;;;;;2.70;2.50;;;20.90;49.60;;;;;;4977819;28;20503;-59
2022/06/09 12:47:15;;;;;;;2.40;2.30;;;20.90;49.60;;;;;;4981823;28;20429;-57
2022/06/09 12:49:44;;;;;;;2.40;2.30;;;20.90;49.60;;;;;;4978633;28;20524;-58
2022/06/09 12:52:34;;;;;;;2.83;2.73;;;20.90;49.70;;;;;;4980767;28;20459;-58
2022/06/09 12:55:05;;;;;;;2.73;2.63;;;20.90;49.60;;;;;;4981233;28;20473;-59
2022/06/09 12:57:35;;;;;;;2.50;2.40;;;20.90;49.60;;;;;;4980959;28;20620;-58
2022/06/09 13:00:21;;;;;;;2.67;2.47;;;20.90;49.60;;;;;;4977481;28;20452;-58
2022/06/09 13:02:48;;;;;;;3.03;2.83;;;20.80;49.60;;;;;;4981570;28;20456;-58
2022/06/09 13:05:24;;;;;;;2.50;2.30;;;20.90;49.60;;;;;;4980912;28;20465;-58
2022/06/09 13:08:12;;;;;;;2.70;2.60;;;20.90;49.60;;;;;;4982956;28;20477;-59
2022/06/09 13:10:40;;;;;;;2.93;2.73;;;20.90;49.60;;;;;;4982985;28;20470;-59
2022/06/09 13:13:20;;;;;;;2.40;2.30;;;20.90;49.70;;;;;;4979413;28;20473;-58
2022/06/09 13:15:53;;;;;;;2.50;2.40;;;20.90;49.70;;;;;;4977735;28;20451;-59
2022/06/09 13:18:31;;;;;;;2.80;2.70;;;20.80;49.60;;;;;;4987390;28;20454;-59
2022/06/09 13:21:05;;;;;;;2.77;2.67;;;20.80;49.60;;;;;;4981588;28;20469;-59
2022/06/09 13:23:30;;;;;;;2.60;2.50;;;20.90;49.70;;;;;;4979953;28;20463;-58
2022/06/09 13:25:57;;;;;;;2.50;2.40;;;20.90;49.70;;;;;;4985605;28;20878;-59
2022/06/09 13:28:52;;;;;;;2.73;2.57;;;20.80;49.70;;;;;;4977889;28;20266;-59